createdAt,value
2023-04-02T00:01:53.342Z,71023.96
2023-04-02T00:07:17.311Z,71660.44
2023-04-02T00:12:26.735Z,71590.50
2023-04-02T00:17:33.290Z,70888.14
2023-04-02T00:22:37.078Z,70767.71
2023-04-02T00:27:42.018Z,71296.77
2023-04-02T00:32:47.614Z,71901.54
2023-04-02T00:37:53.168Z,73530.58
2023-04-02T00:43:01.254Z,73817.42
2023-04-02T00:48:21.372Z,72926.84
2023-04-02T00:53:29.733Z,73743.65
2023-04-02T00:58:36.712Z,73227.04
2023-04-02T01:03:40.179Z,72657.27
2023-04-02T01:08:56.343Z,73835.95
2023-04-02T01:14:07.952Z,74008.73
2023-04-02T01:19:29.707Z,74944.57
2023-04-02T01:24:35.268Z,74223.43
2023-04-02T01:29:46.183Z,75457.43
2023-04-02T01:34:51.606Z,74846.63
2023-04-02T01:40:06.020Z,73302.77
2023-04-02T01:45:12.323Z,70814.84
2023-04-02T01:50:23.756Z,69891.27
2023-04-02T01:55:34.343Z,70273.41
2023-04-02T02:00:43.320Z,69865.26
2023-04-02T02:05:47.525Z,69974.33
2023-04-02T02:10:54.336Z,69492.01
2023-04-02T02:16:05.626Z,69922.54
2023-04-02T02:21:11.565Z,71805.48
2023-04-02T02:26:16.364Z,69151.93
2023-04-02T02:31:28.097Z,69975.26
2023-04-02T02:36:38.082Z,71031.91
2023-04-02T02:41:46.674Z,69861.63
2023-04-02T02:46:54.790Z,70865.27
2023-04-02T02:52:01.733Z,71512.49
2023-04-02T02:57:16.158Z,71124.40
2023-04-02T03:02:25.270Z,71275.60
2023-04-02T03:07:31.161Z,72125.84
2023-04-02T03:12:42.238Z,70905.63
2023-04-02T03:17:58.358Z,71409.60
2023-04-02T03:23:06.832Z,71690.16
2023-04-02T03:28:15.517Z,73548.70
2023-04-02T03:33:23.155Z,73236.08
2023-04-02T03:38:34.323Z,74764.45
2023-04-02T03:43:41.993Z,74008.42
2023-04-02T03:48:52.417Z,73653.70
2023-04-02T03:53:57.243Z,75334.43
2023-04-02T03:59:07.838Z,74847.88
2023-04-02T04:04:16.151Z,76463.07
2023-04-02T04:09:23.530Z,76413.46
2023-04-02T04:14:32.261Z,76403.73
2023-04-02T04:19:45.395Z,76908.38
2023-04-02T04:24:50.796Z,74463.58
2023-04-02T04:30:03.944Z,73944.05
2023-04-02T04:35:20.042Z,73339.52
2023-04-02T04:40:30.615Z,74600.69
2023-04-02T04:45:42.936Z,75004.77
2023-04-02T04:50:52.763Z,75994.88
2023-04-02T04:56:12.508Z,74952.85
2023-04-02T05:01:26.816Z,75295.45
2023-04-02T05:06:39.156Z,74295.02
2023-04-02T05:11:47.169Z,74364.40
2023-04-02T05:16:57.350Z,76768.91
2023-04-02T05:22:14.902Z,76684.11
2023-04-02T05:27:27.548Z,72848.25
2023-04-02T05:32:37.745Z,73690.55
2023-04-02T05:37:43.483Z,73931.26
2023-04-02T05:42:51.181Z,69732.65
2023-04-02T05:48:01.685Z,68126.16
2023-04-02T05:53:18.222Z,68624.24
2023-04-02T06:03:46.196Z,71155.33
2023-04-02T06:08:58.935Z,72574.49
2023-04-02T06:14:04.662Z,71962.88
2023-04-02T06:19:14.710Z,72003.76
2023-04-02T06:24:26.502Z,70847.98
2023-04-02T06:29:38.473Z,68300.14
2023-04-02T06:34:43.747Z,70122.44
2023-04-02T06:39:52.216Z,69490.02
2023-04-02T06:44:56.661Z,69402.92
2023-04-02T06:50:24.452Z,67477.37
2023-04-02T06:55:34.070Z,69745.57
2023-04-02T07:00:42.431Z,70565.82
2023-04-02T07:05:52.375Z,72774.43
2023-04-02T07:10:59.768Z,71901.52
2023-04-02T07:16:06.495Z,71542.61
2023-04-02T07:21:10.994Z,70764.23
2023-04-02T07:26:17.577Z,72007.12
2023-04-02T07:31:24.760Z,70473.33
2023-04-02T07:36:30.869Z,70358.27
2023-04-02T07:41:51.339Z,73189.98
2023-04-02T07:46:54.952Z,72306.29
2023-04-02T07:51:58.366Z,71592.06
2023-04-02T07:57:03.189Z,72728.07
2023-04-02T08:02:07.023Z,70170.73
2023-04-02T08:07:10.493Z,72164.14
2023-04-02T08:12:15.686Z,69476.40
2023-04-02T08:17:19.107Z,68234.99
2023-04-02T08:22:24.600Z,71667.20
2023-04-02T08:27:31.658Z,70215.30
2023-04-02T08:32:35.103Z,70444.27
2023-04-02T08:37:38.609Z,70156.91
2023-04-02T08:42:49.535Z,70013.58
2023-04-02T08:47:56.670Z,67893.98
2023-04-02T08:53:04.372Z,68009.04
2023-04-02T08:58:16.160Z,68773.32
2023-04-02T09:03:20.961Z,69896.42
2023-04-02T09:08:28.302Z,69195.78
2023-04-02T09:13:38.947Z,69371.88
2023-04-02T09:18:48.255Z,72231.00
2023-04-02T09:23:53.789Z,72928.67
2023-04-02T09:29:03.675Z,72432.27
2023-04-02T09:34:21.947Z,73715.13
2023-04-02T09:39:26.996Z,75378.77
2023-04-02T09:44:32.042Z,73130.79
2023-04-02T09:49:40.042Z,74032.59
2023-04-02T09:54:43.470Z,74510.59
2023-04-02T10:00:10.432Z,72646.03
2023-04-02T10:05:39.405Z,73823.39
2023-04-02T10:10:50.816Z,72639.44
2023-04-02T10:16:01.037Z,73904.30
2023-04-02T10:21:11.261Z,74443.04
2023-04-02T10:26:27.433Z,74807.69
2023-04-02T10:31:38.942Z,76881.90
2023-04-02T10:36:50.664Z,77755.38
2023-04-02T10:42:00.208Z,78935.31
2023-04-02T10:47:10.462Z,77818.75
2023-04-02T10:52:19.763Z,76683.41
2023-04-02T10:57:36.419Z,78117.26
2023-04-02T11:02:47.174Z,78102.54
2023-04-02T11:07:55.880Z,79339.65
2023-04-02T11:13:08.560Z,79506.93
2023-04-02T11:18:27.467Z,79141.87
2023-04-02T11:23:33.780Z,79055.56
2023-04-02T11:28:37.245Z,80045.60
2023-04-02T11:33:46.005Z,80683.74
2023-04-02T11:38:52.949Z,81816.90
2023-04-02T11:44:02.745Z,80459.98
2023-04-02T11:49:27.017Z,80177.56
2023-04-02T11:54:38.362Z,81322.13
2023-04-02T11:59:49.950Z,82859.27
2023-04-02T12:05:05.359Z,83985.09
2023-04-02T12:10:19.061Z,84019.56
2023-04-02T12:15:33.368Z,81742.55
2023-04-02T12:20:39.313Z,83467.01
2023-04-02T12:25:54.341Z,82528.39
2023-04-02T12:31:06.064Z,80365.21
2023-04-02T12:36:20.332Z,82990.23
2023-04-02T12:41:30.375Z,74457.99
2023-04-02T12:46:35.715Z,71289.69
2023-04-02T12:51:41.906Z,70559.95
2023-04-02T12:56:46.774Z,71577.80
2023-04-02T13:01:57.180Z,74959.38
2023-04-02T13:07:03.022Z,77677.13
2023-04-02T13:12:25.422Z,78942.04
2023-04-02T13:17:38.641Z,74239.06
2023-04-02T13:22:42.181Z,72555.44
2023-04-02T13:27:47.008Z,72829.08
2023-04-02T13:32:50.510Z,72026.09
2023-04-02T13:37:56.271Z,73529.16
2023-04-02T13:43:02.835Z,75709.89
2023-04-02T13:48:07.406Z,76905.31
2023-04-02T13:53:22.084Z,76974.30
2023-04-02T13:58:29.190Z,76025.49
2023-04-02T14:03:35.688Z,80203.38
2023-04-02T14:08:49.118Z,80291.90
2023-04-02T14:14:07.577Z,80181.52
2023-04-02T14:19:21.093Z,82224.57
2023-04-02T14:24:32.691Z,81920.63
2023-04-02T14:29:47.349Z,82735.11
2023-04-02T14:34:57.741Z,81366.99
2023-04-02T14:40:08.892Z,82455.83
2023-04-02T14:45:21.358Z,82544.50
2023-04-02T14:50:29.557Z,82649.41
2023-04-02T14:55:37.994Z,84171.27
2023-04-02T15:00:45.826Z,84116.79
2023-04-02T15:05:56.626Z,82814.05
2023-04-02T15:11:07.888Z,84182.12
2023-04-02T15:16:19.203Z,82649.81
2023-04-02T15:21:43.414Z,81244.23
2023-04-02T15:27:01.419Z,75824.09
2023-04-02T15:32:23.935Z,79110.99
2023-04-02T15:37:34.548Z,82140.15
2023-04-02T15:42:44.228Z,79643.55
2023-04-02T15:48:02.702Z,80481.70
2023-04-02T15:53:17.974Z,82998.41
2023-04-02T15:58:35.627Z,84131.00
2023-04-02T16:03:55.926Z,82068.65
2023-04-02T16:09:08.559Z,83005.95
2023-04-02T16:14:17.917Z,83349.06
2023-04-02T16:19:27.489Z,84147.00
2023-04-02T16:24:30.870Z,84764.35
2023-04-02T16:35:31.054Z,85648.13
2023-04-02T16:40:38.076Z,85469.71
2023-04-02T16:45:52.276Z,85878.61
2023-04-02T16:51:10.904Z,84903.96
2023-04-02T16:56:23.555Z,82828.23
2023-04-02T17:01:35.324Z,83869.30
2023-04-02T17:06:43.518Z,86446.98
2023-04-02T17:11:50.502Z,85716.56
2023-04-02T17:16:59.539Z,86056.70
2023-04-02T17:22:07.753Z,88273.66
2023-04-02T17:27:22.968Z,88270.42
2023-04-02T17:32:29.817Z,81541.36
2023-04-02T17:37:41.563Z,82430.73
2023-04-02T17:42:58.390Z,85425.06
2023-04-02T17:48:05.542Z,85681.83
2023-04-02T17:53:21.780Z,85097.52
2023-04-02T17:58:44.050Z,84567.89
2023-04-02T18:03:52.168Z,84840.16
2023-04-02T18:09:05.918Z,85367.98
2023-04-02T18:14:27.861Z,84167.77
2023-04-02T18:19:40.698Z,83553.55
2023-04-02T18:24:59.201Z,83065.27
2023-04-02T18:30:15.671Z,86405.13
2023-04-02T18:35:26.762Z,86819.65
2023-04-02T18:40:43.403Z,88022.65
2023-04-02T18:45:56.249Z,85354.68
2023-04-02T18:51:03.971Z,87730.84
2023-04-02T18:56:13.938Z,87968.98
2023-04-02T19:01:22.306Z,90119.30
2023-04-02T19:06:31.493Z,91341.46
2023-04-02T19:11:38.751Z,90725.68
2023-04-02T19:16:55.850Z,90457.05
2023-04-02T19:22:12.693Z,89660.77
2023-04-02T19:27:27.260Z,87253.88
2023-04-02T19:32:36.637Z,89986.18
2023-04-02T19:37:42.495Z,90148.20
2023-04-02T19:42:49.933Z,90033.88
2023-04-02T19:47:57.921Z,90832.70
2023-04-02T19:53:01.299Z,88877.54
2023-04-02T19:58:18.723Z,89621.25
2023-04-02T20:03:23.657Z,91015.25
2023-04-02T20:08:27.190Z,91564.20
2023-04-02T20:13:32.265Z,93758.80
2023-04-02T20:18:37.145Z,93335.29
2023-04-02T20:23:46.116Z,94849.41
2023-04-02T20:28:50.962Z,95050.76
2023-04-02T20:33:57.509Z,94710.79
2023-04-02T20:39:03.621Z,95114.88
2023-04-02T20:44:08.504Z,95338.60
2023-04-02T20:49:12.099Z,94966.57
2023-04-02T20:54:15.492Z,94331.30
2023-04-02T20:59:20.370Z,93698.50
2023-04-02T21:04:28.325Z,94829.05
2023-04-02T21:09:32.155Z,96307.67
2023-04-02T21:14:39.130Z,95262.93
2023-04-02T21:19:42.613Z,94038.86
2023-04-02T21:24:45.980Z,94040.79
2023-04-02T21:29:53.488Z,94333.70
2023-04-02T21:34:56.891Z,93561.31
2023-04-02T21:40:02.681Z,92337.12
2023-04-02T21:45:08.158Z,92589.84
2023-04-02T21:50:14.558Z,94468.92
2023-04-02T21:55:21.055Z,93728.36
2023-04-02T22:00:28.344Z,94682.29
2023-04-02T22:05:31.776Z,91313.44
2023-04-02T22:10:37.712Z,87496.27
2023-04-02T22:15:42.658Z,86355.56
2023-04-02T22:20:46.191Z,87607.77
2023-04-02T22:25:49.852Z,88560.88
2023-04-02T22:30:55.451Z,89595.67
2023-04-02T22:35:59.521Z,90462.55
2023-04-02T22:41:04.496Z,90799.70
2023-04-02T22:46:10.171Z,91019.81
2023-04-02T22:51:16.029Z,89870.70
2023-04-02T22:56:21.709Z,87035.45
2023-04-02T23:01:27.815Z,89828.70
2023-04-02T23:06:32.091Z,90208.52
2023-04-02T23:11:35.656Z,92151.33
2023-04-02T23:16:40.439Z,92576.23
2023-04-02T23:21:44.008Z,94153.37
2023-04-02T23:26:47.392Z,93232.83
2023-04-02T23:31:52.229Z,92091.94
2023-04-02T23:36:55.608Z,91252.95
2023-04-02T23:42:00.745Z,99647.45
2023-04-02T23:47:05.856Z,99996.30
2023-04-02T23:52:09.454Z,100434.88
2023-04-02T23:57:12.853Z,100535.39
